createdAt,value
2018-01-01T00:00:02.708Z,1.73
2018-01-01T00:02:29.401Z,2.10
2018-01-01T00:04:56.017Z,2.90
2018-01-01T00:07:22.659Z,3.03
2018-01-01T00:09:49.380Z,2.80
2018-01-01T00:12:15.999Z,2.40
2018-01-01T00:14:42.617Z,1.87
2018-01-01T00:17:09.289Z,2.00
2018-01-01T00:19:35.924Z,2.73
2018-01-01T00:22:02.538Z,1.93
2018-01-01T00:24:29.179Z,3.17
2018-01-01T00:26:56.328Z,2.80
2018-01-01T00:29:22.929Z,2.80
2018-01-01T00:31:49.585Z,3.60
2018-01-01T00:34:16.213Z,4.80
2018-01-01T00:36:42.842Z,4.90
2018-01-01T00:39:09.458Z,2.93
2018-01-01T00:41:36.113Z,3.50
2018-01-01T00:44:02.726Z,4.03
2018-01-01T00:46:29.338Z,3.50
2018-01-01T00:48:55.978Z,4.93
2018-01-01T00:51:22.619Z,3.10
2018-01-01T00:53:49.242Z,3.20
2018-01-01T00:56:15.863Z,3.70
2018-01-01T00:58:42.502Z,4.67
2018-01-01T01:01:09.186Z,4.77
2018-01-01T01:03:35.816Z,3.43
2018-01-01T01:06:02.422Z,3.00
2018-01-01T01:08:29.076Z,3.23
2018-01-01T01:10:55.697Z,4.30
2018-01-01T01:13:22.354Z,5.30
2018-01-01T01:15:48.955Z,6.10
2018-01-01T01:18:15.566Z,4.83
2018-01-01T01:20:42.197Z,4.13
2018-01-01T01:23:08.849Z,2.77
2018-01-01T01:25:35.592Z,4.00
2018-01-01T01:28:02.223Z,4.60
2018-01-01T01:30:28.862Z,1.37
2018-01-01T01:32:55.631Z,3.47
2018-01-01T01:35:22.263Z,3.37
2018-01-01T01:37:48.877Z,4.20
2018-01-01T01:40:15.658Z,5.00
2018-01-01T01:42:42.264Z,2.03
2018-01-01T01:45:08.882Z,3.83
2018-01-01T01:47:35.517Z,3.30
2018-01-01T01:50:02.133Z,3.63
2018-01-01T01:52:28.781Z,3.67
2018-01-01T01:54:55.457Z,3.87
2018-01-01T01:57:22.114Z,2.80
2018-01-01T01:59:48.706Z,3.03
2018-01-01T02:02:15.363Z,3.47
2018-01-01T02:04:42.013Z,2.83
2018-01-01T02:07:08.629Z,3.87
2018-01-01T02:09:35.262Z,2.23
2018-01-01T02:12:01.885Z,3.70
2018-01-01T02:14:28.506Z,2.17
2018-01-01T02:16:55.222Z,3.80
2018-01-01T02:19:21.837Z,3.77
2018-01-01T02:21:48.509Z,4.47
2018-01-01T02:24:15.122Z,3.80
2018-01-01T02:26:41.759Z,3.33
2018-01-01T02:29:08.402Z,3.47
2018-01-01T02:31:35.028Z,2.87
2018-01-01T02:34:01.663Z,1.83
2018-01-01T02:36:28.315Z,4.03
2018-01-01T02:38:54.953Z,2.93
2018-01-01T02:41:21.598Z,1.70
2018-01-01T02:43:48.206Z,1.67
2018-01-01T02:46:14.823Z,2.47
2018-01-01T02:48:41.447Z,2.60
2018-01-01T02:51:08.054Z,1.60
2018-01-01T02:53:34.659Z,1.03
2018-01-01T02:56:01.294Z,2.33
2018-01-01T02:58:27.897Z,1.30
2018-01-01T03:00:54.514Z,2.20
2018-01-01T03:03:21.162Z,1.93
2018-01-01T03:05:47.762Z,1.10
2018-01-01T03:08:14.382Z,0.90
2018-01-01T03:10:41.018Z,2.20
2018-01-01T03:13:07.689Z,1.63
2018-01-01T03:15:34.278Z,1.40
2018-01-01T03:18:00.887Z,1.30
2018-01-01T03:20:27.528Z,1.43
2018-01-01T03:22:54.126Z,2.13
2018-01-01T03:25:20.763Z,1.07
2018-01-01T03:27:47.362Z,2.20
2018-01-01T03:30:13.998Z,1.30
2018-01-01T03:32:40.637Z,2.07
2018-01-01T03:35:07.273Z,1.40
2018-01-01T03:37:33.925Z,1.00
2018-01-01T03:40:00.559Z,1.27
2018-01-01T03:42:27.189Z,0.50
2018-01-01T03:44:53.826Z,0.80
2018-01-01T03:47:20.425Z,1.20
2018-01-01T03:49:47.050Z,1.03
2018-01-01T03:52:13.758Z,0.70
2018-01-01T03:54:40.394Z,0.77
2018-01-01T03:57:07.003Z,1.50
2018-01-01T03:59:33.634Z,0.93
2018-01-01T04:02:00.254Z,0.60
2018-01-01T04:04:26.870Z,0.70
2018-01-01T04:06:53.524Z,0.90
2018-01-01T04:09:20.146Z,1.53
2018-01-01T04:11:46.759Z,0.90
2018-01-01T04:14:13.602Z,1.23
2018-01-01T04:16:40.205Z,0.60
2018-01-01T04:19:06.806Z,1.10
2018-01-01T04:21:33.434Z,0.80
2018-01-01T04:24:00.043Z,0.90
2018-01-01T04:26:26.682Z,1.90
2018-01-01T04:28:53.358Z,0.83
2018-01-01T04:31:19.947Z,1.10
2018-01-01T04:33:46.551Z,1.00
2018-01-01T04:36:13.174Z,1.37
2018-01-01T04:38:39.798Z,1.00
2018-01-01T04:41:06.454Z,1.10
2018-01-01T04:43:33.226Z,0.97
2018-01-01T04:46:00.028Z,0.70
2018-01-01T04:48:26.645Z,0.97
2018-01-01T04:50:53.277Z,0.80
2018-01-01T04:53:19.893Z,1.10
2018-01-01T04:55:46.505Z,1.00
2018-01-01T04:58:13.102Z,0.70
2018-01-01T05:00:39.725Z,0.60
2018-01-01T05:03:06.342Z,0.80
2018-01-01T05:05:32.970Z,0.67
2018-01-01T05:07:59.600Z,0.80
2018-01-01T05:10:26.201Z,0.60
2018-01-01T05:12:52.822Z,0.67
2018-01-01T05:15:19.450Z,1.27
2018-01-01T05:17:46.090Z,0.73
2018-01-01T05:20:12.674Z,0.77
2018-01-01T05:22:39.301Z,0.87
2018-01-01T05:25:05.902Z,1.43
2018-01-01T05:27:32.543Z,1.00
2018-01-01T05:29:59.169Z,1.00
2018-01-01T05:32:25.770Z,0.90
2018-01-01T05:34:52.403Z,1.30
2018-01-01T05:37:19.026Z,0.70
2018-01-01T05:39:45.629Z,1.37
2018-01-01T05:42:12.254Z,0.80
2018-01-01T05:44:38.889Z,0.70
2018-01-01T05:47:05.637Z,0.70
2018-01-01T05:49:32.242Z,0.90
2018-01-01T05:51:58.856Z,0.70
2018-01-01T05:54:25.473Z,0.83
2018-01-01T05:56:52.094Z,1.47
2018-01-01T05:59:18.735Z,1.33
2018-01-01T06:01:45.337Z,0.90
2018-01-01T06:04:11.970Z,0.70
2018-01-01T06:06:38.590Z,0.90
2018-01-01T06:09:05.189Z,0.70
2018-01-01T06:11:31.817Z,1.00
2018-01-01T06:13:58.415Z,1.00
2018-01-01T06:16:25.066Z,0.80
2018-01-01T06:18:51.662Z,0.70
2018-01-01T06:21:18.267Z,0.70
2018-01-01T06:23:44.907Z,0.83
2018-01-01T06:26:11.498Z,0.80
2018-01-01T06:28:38.093Z,1.33
2018-01-01T06:31:04.726Z,0.60
2018-01-01T06:33:31.322Z,0.80
2018-01-01T06:35:58.086Z,0.60
2018-01-01T06:38:24.692Z,0.80
2018-01-01T06:40:51.326Z,0.93
2018-01-01T06:43:17.937Z,1.00
2018-01-01T06:45:44.541Z,1.30
2018-01-01T06:48:11.175Z,0.70
2018-01-01T06:50:37.786Z,0.70
2018-01-01T06:53:04.386Z,0.80
2018-01-01T06:55:31.121Z,1.20
2018-01-01T06:57:57.714Z,1.37
2018-01-01T07:00:24.314Z,0.83
2018-01-01T07:02:50.930Z,0.80
2018-01-01T07:05:17.570Z,0.87
2018-01-01T07:07:44.178Z,0.97
2018-01-01T07:10:10.813Z,0.70
2018-01-01T07:12:37.444Z,1.73
2018-01-01T07:15:04.040Z,1.23
2018-01-01T07:17:30.665Z,0.80
2018-01-01T07:19:57.260Z,1.47
2018-01-01T07:22:23.914Z,0.80
2018-01-01T07:24:50.518Z,1.03
2018-01-01T07:27:17.122Z,1.57
2018-01-01T07:29:43.765Z,0.60
2018-01-01T07:32:10.379Z,0.60
2018-01-01T07:34:36.999Z,1.30
2018-01-01T07:37:03.614Z,0.67
2018-01-01T07:39:30.242Z,0.60
2018-01-01T07:41:56.837Z,0.80
2018-01-01T07:44:23.974Z,1.30
2018-01-01T07:46:50.590Z,1.07
2018-01-01T07:49:17.206Z,0.80
2018-01-01T07:51:43.839Z,0.70
2018-01-01T07:54:10.466Z,0.80
2018-01-01T07:56:37.061Z,0.70
2018-01-01T07:59:03.689Z,0.70
2018-01-01T08:01:30.375Z,1.10
2018-01-01T08:03:56.986Z,1.30
2018-01-01T08:06:23.635Z,0.87
2018-01-01T08:08:50.253Z,1.00
2018-01-01T08:11:16.882Z,1.80
2018-01-01T08:13:43.493Z,1.13
2018-01-01T08:16:10.137Z,1.10
2018-01-01T08:18:36.754Z,0.77
2018-01-01T08:21:03.351Z,1.00
2018-01-01T08:23:30.013Z,0.90
2018-01-01T08:25:56.619Z,0.83
2018-01-01T08:28:23.345Z,0.60
2018-01-01T08:30:49.982Z,1.00
2018-01-01T08:33:16.582Z,0.60
2018-01-01T08:35:43.221Z,0.73
2018-01-01T08:38:09.834Z,1.10
2018-01-01T08:40:36.463Z,0.80
2018-01-01T08:43:03.102Z,0.73
2018-01-01T08:45:29.744Z,0.60
2018-01-01T08:47:56.361Z,1.57
2018-01-01T08:50:23.170Z,1.10
2018-01-01T08:52:49.789Z,0.90
2018-01-01T08:55:16.493Z,0.70
2018-01-01T08:57:43.077Z,0.90
2018-01-01T09:00:09.697Z,0.90
2018-01-01T09:02:36.483Z,1.00
2018-01-01T09:05:03.082Z,1.50
2018-01-01T09:07:29.739Z,0.67
2018-01-01T09:09:56.334Z,1.50
2018-01-01T09:12:22.990Z,0.70
2018-01-01T09:14:49.625Z,0.70
2018-01-01T09:17:16.258Z,0.70
2018-01-01T09:19:42.841Z,1.00
2018-01-01T09:22:09.474Z,0.90
2018-01-01T09:24:36.119Z,0.80
2018-01-01T09:27:02.737Z,1.23
2018-01-01T09:29:29.354Z,1.60
2018-01-01T09:31:56.102Z,1.73
2018-01-01T09:34:22.734Z,1.10
2018-01-01T09:36:49.322Z,0.70
2018-01-01T09:39:15.985Z,0.90
2018-01-01T09:41:42.560Z,0.90
2018-01-01T09:44:09.181Z,1.43
2018-01-01T09:46:35.803Z,1.23
2018-01-01T09:49:02.390Z,1.00
2018-01-01T09:51:29.032Z,0.90
2018-01-01T09:53:55.631Z,0.80
2018-01-01T09:56:22.266Z,0.80
2018-01-01T09:58:48.866Z,1.00
2018-01-01T10:01:15.501Z,0.80
2018-01-01T10:03:42.156Z,1.20
2018-01-01T10:06:08.918Z,1.13
2018-01-01T10:08:35.519Z,1.80
2018-01-01T10:11:02.127Z,0.80
2018-01-01T10:13:28.762Z,1.17
2018-01-01T10:15:55.371Z,1.23
2018-01-01T10:18:22.006Z,0.60
2018-01-01T10:20:48.610Z,1.00
2018-01-01T10:23:15.238Z,0.70
2018-01-01T10:25:41.854Z,0.80
2018-01-01T10:28:08.511Z,0.80
2018-01-01T10:30:35.123Z,1.90
2018-01-01T10:33:01.739Z,1.10
2018-01-01T10:35:28.369Z,1.57
2018-01-01T10:37:55.027Z,1.67
2018-01-01T10:40:21.670Z,1.00
2018-01-01T10:42:48.278Z,0.77
2018-01-01T10:45:14.906Z,1.77
2018-01-01T10:47:41.526Z,0.70
2018-01-01T10:50:08.152Z,0.90
2018-01-01T10:52:34.821Z,1.00
2018-01-01T10:55:01.429Z,1.73
2018-01-01T10:57:28.036Z,1.13
2018-01-01T10:59:54.670Z,1.13
2018-01-01T11:02:21.294Z,1.63
2018-01-01T11:04:47.882Z,0.70
2018-01-01T11:07:14.542Z,0.80
2018-01-01T11:09:41.169Z,0.60
2018-01-01T11:12:07.806Z,0.80
2018-01-01T11:14:34.430Z,1.00
2018-01-01T11:17:01.081Z,1.10
2018-01-01T11:19:27.690Z,0.70
2018-01-01T11:21:54.337Z,0.70
2018-01-01T11:24:20.995Z,0.67
2018-01-01T11:26:47.647Z,1.10
2018-01-01T11:29:14.279Z,0.70
2018-01-01T11:31:40.952Z,0.97
2018-01-01T11:34:07.576Z,1.13
2018-01-01T11:36:34.210Z,0.93
2018-01-01T11:39:00.883Z,0.70
2018-01-01T11:41:27.516Z,0.70
2018-01-01T11:43:54.177Z,1.03
2018-01-01T11:46:20.803Z,0.93
2018-01-01T11:48:47.452Z,1.60
2018-01-01T11:51:14.058Z,1.90
2018-01-01T11:53:40.725Z,0.80
2018-01-01T11:56:07.351Z,0.90
2018-01-01T11:58:33.995Z,0.97
2018-01-01T12:01:00.653Z,1.27
2018-01-01T12:03:27.335Z,0.80
2018-01-01T12:05:53.943Z,1.23
2018-01-01T12:08:20.580Z,2.30
2018-01-01T12:10:47.202Z,1.37
2018-01-01T12:13:13.867Z,0.90
2018-01-01T12:15:40.506Z,0.90
2018-01-01T12:18:07.111Z,1.00
2018-01-01T12:20:33.752Z,1.03
2018-01-01T12:23:00.378Z,0.73
2018-01-01T12:25:27.007Z,0.90
2018-01-01T12:27:53.655Z,0.70
2018-01-01T12:30:20.259Z,1.10
2018-01-01T12:32:46.912Z,0.90
2018-01-01T12:35:13.542Z,1.20
2018-01-01T12:37:40.194Z,1.60
2018-01-01T12:40:06.867Z,1.17
2018-01-01T12:42:33.520Z,1.00
2018-01-01T12:45:00.166Z,0.83
2018-01-01T12:47:26.809Z,0.70
2018-01-01T12:49:53.423Z,1.17
2018-01-01T12:52:20.082Z,1.73
2018-01-01T12:54:46.698Z,0.87
2018-01-01T12:57:14.231Z,1.37
2018-01-01T12:59:40.869Z,0.77
2018-01-01T13:02:07.483Z,1.00
2018-01-01T13:04:34.118Z,0.90
2018-01-01T13:07:00.747Z,1.33
2018-01-01T13:09:27.408Z,1.77
2018-01-01T13:11:54.037Z,1.23
2018-01-01T13:14:20.695Z,1.63
2018-01-01T13:16:47.424Z,1.00
2018-01-01T13:19:14.092Z,1.87
2018-01-01T13:21:40.755Z,1.43
2018-01-01T13:24:07.365Z,1.50
2018-01-01T13:26:34.042Z,0.70
2018-01-01T13:29:00.709Z,0.80
2018-01-01T13:31:27.367Z,1.80
2018-01-01T13:33:53.990Z,0.90
2018-01-01T13:36:20.622Z,1.10
2018-01-01T13:38:47.305Z,1.10
2018-01-01T13:41:13.974Z,1.60
2018-01-01T13:43:40.567Z,0.73
2018-01-01T13:46:07.238Z,0.97
2018-01-01T13:48:33.929Z,1.10
2018-01-01T13:51:00.564Z,1.27
2018-01-01T13:53:27.206Z,0.80
2018-01-01T13:55:53.846Z,0.63
2018-01-01T13:58:20.519Z,1.37
2018-01-01T14:00:47.171Z,0.70
2018-01-01T14:03:13.811Z,1.47
2018-01-01T14:05:40.467Z,1.00
2018-01-01T14:08:07.152Z,1.10
2018-01-01T14:10:33.812Z,0.90
2018-01-01T14:13:00.420Z,1.70
2018-01-01T14:15:27.065Z,1.67
2018-01-01T14:17:53.708Z,1.50
2018-01-01T14:20:20.390Z,1.57
2018-01-01T14:22:47.010Z,0.87
2018-01-01T14:25:13.661Z,1.30
2018-01-01T14:27:40.299Z,1.20
2018-01-01T14:30:06.923Z,0.83
2018-01-01T14:32:33.574Z,0.90
2018-01-01T14:35:00.205Z,1.90
2018-01-01T14:37:26.874Z,0.80
2018-01-01T14:39:53.492Z,1.90
2018-01-01T14:42:20.162Z,2.70
2018-01-01T14:44:46.839Z,1.03
2018-01-01T14:47:13.456Z,0.80
2018-01-01T14:49:40.108Z,0.73
2018-01-01T14:52:06.784Z,0.77
2018-01-01T14:54:33.421Z,1.60
2018-01-01T14:57:00.055Z,1.60
2018-01-01T14:59:26.724Z,1.37
2018-01-01T15:01:53.335Z,1.27
2018-01-01T15:04:20.028Z,1.50
2018-01-01T15:06:46.721Z,1.00
2018-01-01T15:09:13.374Z,1.13
2018-01-01T15:11:40.041Z,3.73
2018-01-01T15:14:06.694Z,2.60
2018-01-01T15:16:33.904Z,2.60
2018-01-01T15:19:00.506Z,2.20
2018-01-01T15:21:27.370Z,2.90
2018-01-01T15:23:54.153Z,4.27
2018-01-01T15:26:20.786Z,2.03
2018-01-01T15:28:47.485Z,3.80
2018-01-01T15:31:14.112Z,3.60
2018-01-01T15:33:40.780Z,4.97
2018-01-01T15:36:07.419Z,4.63
2018-01-01T15:38:34.081Z,2.80
2018-01-01T15:41:00.710Z,4.67
2018-01-01T15:43:27.340Z,3.60
2018-01-01T15:45:53.945Z,6.17
2018-01-01T15:48:20.611Z,9.17
2018-01-01T15:50:47.305Z,6.37
2018-01-01T15:53:13.998Z,8.90
2018-01-01T15:55:40.606Z,6.37
2018-01-01T15:58:07.272Z,9.03
2018-01-01T16:00:33.914Z,7.00
2018-01-01T16:03:00.773Z,5.80
2018-01-01T16:05:27.420Z,7.80
2018-01-01T16:07:54.070Z,5.00
2018-01-01T16:10:20.676Z,7.80
2018-01-01T16:12:47.353Z,6.83
2018-01-01T16:15:14.027Z,3.77
2018-01-01T16:17:40.712Z,4.20
2018-01-01T16:20:07.353Z,3.73
2018-01-01T16:22:33.979Z,2.10
2018-01-01T16:25:00.653Z,2.20
2018-01-01T16:27:27.303Z,2.47
2018-01-01T16:29:53.981Z,1.83
2018-01-01T16:32:21.168Z,2.30
2018-01-01T16:34:47.806Z,2.27
2018-01-01T16:37:14.409Z,1.73
2018-01-01T16:39:41.067Z,2.97
2018-01-01T16:42:07.720Z,2.00
2018-01-01T16:44:34.368Z,1.90
2018-01-01T16:47:01.017Z,1.63
2018-01-01T16:49:27.656Z,2.40
2018-01-01T16:51:54.331Z,1.90
2018-01-01T16:54:20.970Z,1.87
2018-01-01T16:56:47.595Z,3.40
2018-01-01T16:59:14.260Z,3.10
2018-01-01T17:01:40.924Z,1.97
2018-01-01T17:04:07.696Z,1.67
2018-01-01T17:06:34.327Z,1.80
2018-01-01T17:09:01.036Z,2.13
2018-01-01T17:11:27.698Z,1.30
2018-01-01T17:13:54.363Z,1.50
2018-01-01T17:16:21.201Z,1.70
2018-01-01T17:18:47.836Z,1.70
2018-01-01T17:21:14.471Z,1.50
2018-01-01T17:23:41.174Z,2.37
2018-01-01T17:26:07.898Z,2.60
2018-01-01T17:28:34.613Z,4.47
2018-01-01T17:31:01.363Z,5.20
2018-01-01T17:33:28.053Z,4.30
2018-01-01T17:35:54.675Z,6.40
2018-01-01T17:38:21.362Z,7.80
2018-01-01T17:40:48.141Z,6.47
2018-01-01T17:43:14.877Z,7.13
2018-01-01T17:45:41.551Z,4.70
2018-01-01T17:48:08.205Z,4.00
2018-01-01T17:50:34.843Z,3.37
2018-01-01T17:53:01.475Z,3.20
2018-01-01T17:55:28.173Z,3.20
2018-01-01T17:57:54.892Z,2.67
2018-01-01T18:00:21.523Z,2.53
2018-01-01T18:02:48.218Z,2.70
2018-01-01T18:05:14.821Z,2.10
2018-01-01T18:07:41.511Z,3.87
2018-01-01T18:10:08.135Z,2.43
2018-01-01T18:12:34.789Z,1.90
2018-01-01T18:15:01.449Z,1.63
2018-01-01T18:17:28.079Z,1.13
2018-01-01T18:19:54.682Z,1.13
2018-01-01T18:22:21.511Z,1.60
2018-01-01T18:24:48.153Z,0.80
2018-01-01T18:27:14.756Z,1.60
2018-01-01T18:29:41.399Z,1.20
2018-01-01T18:32:08.042Z,1.90
2018-01-01T18:34:34.759Z,1.20
2018-01-01T18:37:01.615Z,2.13
2018-01-01T18:39:28.367Z,1.07
2018-01-01T18:41:54.981Z,1.50
2018-01-01T18:44:21.642Z,0.90
2018-01-01T18:46:48.276Z,1.63
2018-01-01T18:49:14.955Z,1.37
2018-01-01T18:51:41.579Z,1.23
2018-01-01T18:54:08.242Z,1.10
2018-01-01T18:56:34.918Z,1.10
2018-01-01T18:59:01.573Z,2.63
2018-01-01T19:01:28.209Z,1.97
2018-01-01T19:03:54.837Z,1.73
2018-01-01T19:06:21.515Z,1.47
2018-01-01T19:08:48.191Z,1.40
2018-01-01T19:11:14.815Z,1.50
2018-01-01T19:13:41.470Z,0.70
2018-01-01T19:16:08.108Z,1.53
2018-01-01T19:18:34.741Z,0.83
2018-01-01T19:21:01.438Z,0.90
2018-01-01T19:23:28.078Z,0.60
2018-01-01T19:25:54.941Z,1.67
2018-01-01T19:28:21.553Z,0.87
2018-01-01T19:30:48.250Z,0.70
2018-01-01T19:33:14.859Z,0.73
2018-01-01T19:35:41.523Z,0.80
2018-01-01T19:38:08.160Z,1.60
2018-01-01T19:40:34.979Z,1.40
2018-01-01T19:43:01.600Z,1.23
2018-01-01T19:45:28.218Z,0.70
2018-01-01T19:47:54.942Z,1.27
2018-01-01T19:50:21.602Z,0.80
2018-01-01T19:52:48.279Z,1.23
2018-01-01T19:55:14.906Z,0.90
2018-01-01T19:57:41.608Z,1.67
2018-01-01T20:00:08.270Z,1.23
2018-01-01T20:02:34.982Z,1.30
2018-01-01T20:05:01.659Z,1.50
2018-01-01T20:07:28.303Z,0.80
2018-01-01T20:09:55.101Z,1.00
2018-01-01T20:12:21.744Z,1.13
2018-01-01T20:14:48.375Z,1.40
2018-01-01T20:17:15.022Z,1.57
2018-01-01T20:19:41.887Z,1.67
2018-01-01T20:22:08.537Z,1.00
2018-01-01T20:24:35.200Z,1.03
2018-01-01T20:27:01.805Z,1.37
2018-01-01T20:29:28.432Z,0.80
2018-01-01T20:31:55.092Z,0.97
2018-01-01T20:34:21.718Z,1.43
2018-01-01T20:36:48.500Z,2.37
2018-01-01T20:39:15.900Z,0.90
2018-01-01T20:41:42.568Z,0.77
2018-01-01T20:44:09.225Z,0.80
2018-01-01T20:46:35.878Z,1.00
2018-01-01T20:49:02.548Z,0.83
2018-01-01T20:51:29.188Z,1.23
2018-01-01T20:53:55.862Z,0.70
2018-01-01T20:56:22.527Z,1.20
2018-01-01T20:58:49.228Z,0.83
2018-01-01T21:01:15.842Z,0.90
2018-01-01T21:03:42.509Z,0.80
2018-01-01T21:06:09.138Z,1.20
2018-01-01T21:08:35.797Z,0.80
2018-01-01T21:11:02.483Z,0.87
2018-01-01T21:13:29.097Z,1.20
2018-01-01T21:15:55.748Z,1.30
2018-01-01T21:18:22.400Z,0.77
2018-01-01T21:20:49.055Z,0.80
2018-01-01T21:23:15.674Z,1.10
2018-01-01T21:25:42.313Z,1.00
2018-01-01T21:28:08.977Z,2.00
2018-01-01T21:30:35.614Z,1.30
2018-01-01T21:33:02.291Z,0.97
2018-01-01T21:35:28.913Z,2.33
2018-01-01T21:37:55.565Z,1.30
2018-01-01T21:40:22.161Z,2.33
2018-01-01T21:42:48.826Z,1.07
2018-01-01T21:45:15.488Z,0.80
2018-01-01T21:47:42.128Z,1.13
2018-01-01T21:50:08.777Z,0.80
2018-01-01T21:52:35.428Z,1.40
2018-01-01T21:55:02.053Z,1.00
2018-01-01T21:57:28.731Z,1.20
2018-01-01T21:59:55.368Z,1.20
2018-01-01T22:02:22.172Z,1.47
2018-01-01T22:04:48.807Z,1.00
2018-01-01T22:07:15.453Z,0.93
2018-01-01T22:09:42.092Z,1.20
2018-01-01T22:12:08.704Z,1.60
2018-01-01T22:14:35.331Z,1.07
2018-01-01T22:17:01.985Z,0.73
2018-01-01T22:19:28.615Z,0.93
2018-01-01T22:21:55.250Z,1.00
2018-01-01T22:24:22.175Z,0.80
2018-01-01T22:26:48.796Z,1.20
2018-01-01T22:29:15.507Z,0.70
2018-01-01T22:31:42.142Z,0.83
2018-01-01T22:34:08.776Z,0.80
2018-01-01T22:36:35.455Z,0.90
2018-01-01T22:39:02.126Z,1.43
2018-01-01T22:41:28.769Z,0.70
2018-01-01T22:43:55.460Z,0.90
2018-01-01T22:46:22.294Z,0.80
2018-01-01T22:48:48.982Z,1.27
2018-01-01T22:51:15.613Z,1.03
2018-01-01T22:53:42.358Z,0.70
2018-01-01T22:56:08.979Z,0.90
2018-01-01T22:58:35.674Z,1.03
2018-01-01T23:01:02.326Z,0.90
2018-01-01T23:03:28.974Z,0.93
2018-01-01T23:05:56.477Z,0.90
2018-01-01T23:08:23.172Z,0.87
2018-01-01T23:10:49.845Z,0.80
2018-01-01T23:13:16.563Z,0.80
2018-01-01T23:15:43.282Z,0.60
2018-01-01T23:18:09.902Z,1.00
2018-01-01T23:20:36.514Z,0.70
2018-01-01T23:23:03.166Z,1.00
2018-01-01T23:25:29.797Z,0.83
2018-01-01T23:27:56.423Z,1.00
2018-01-01T23:30:23.019Z,1.03
2018-01-01T23:32:49.674Z,0.60
2018-01-01T23:35:16.311Z,1.07
2018-01-01T23:37:42.949Z,1.43
2018-01-01T23:40:09.559Z,1.77
2018-01-01T23:42:36.168Z,0.87
2018-01-01T23:45:02.807Z,0.77
2018-01-01T23:47:29.403Z,1.53
2018-01-01T23:49:56.042Z,0.70
2018-01-01T23:52:22.680Z,1.33
2018-01-01T23:54:49.287Z,1.23
2018-01-01T23:57:15.924Z,0.90
2018-01-01T23:59:42.582Z,1.07
